sensor_id;sensor_type;location;lat;lon;timestamp;pressure;altitude;pressure_sealevel;temperature;humidity
41573;BME280;27286;47.870;19.006;2022-12-07T00:03:50;99152.22;;;2.72;93.68
41573;BME280;27286;47.870;19.006;2022-12-07T00:06:18;99155.03;;;2.55;94.51
41573;BME280;27286;47.870;19.006;2022-12-07T00:08:44;99156.13;;;2.37;95.63
41573;BME280;27286;47.870;19.006;2022-12-07T00:11:12;99159.59;;;2.32;96.20
41573;BME280;27286;47.870;19.006;2022-12-07T00:13:38;99148.66;;;2.16;97.76
41573;BME280;27286;47.870;19.006;2022-12-07T00:16:10;99150.50;;;2.05;98.83
41573;BME280;27286;47.870;19.006;2022-12-07T00:18:36;99145.34;;;2.08;98.67
41573;BME280;27286;47.870;19.006;2022-12-07T00:21:29;99140.75;;;2.33;98.20
41573;BME280;27286;47.870;19.006;2022-12-07T00:23:56;99142.19;;;2.55;96.72
41573;BME280;27286;47.870;19.006;2022-12-07T00:26:27;99140.00;;;2.25;96.50
41573;BME280;27286;47.870;19.006;2022-12-07T00:28:56;99135.94;;;2.07;98.15
41573;BME280;27286;47.870;19.006;2022-12-07T00:31:23;99141.03;;;2.10;99.47
41573;BME280;27286;47.870;19.006;2022-12-07T00:33:49;99139.25;;;2.15;99.67
41573;BME280;27286;47.870;19.006;2022-12-07T00:36:18;99138.34;;;2.21;100.00
41573;BME280;27286;47.870;19.006;2022-12-07T00:38:43;99127.25;;;2.17;99.52
41573;BME280;27286;47.870;19.006;2022-12-07T00:41:11;99142.53;;;2.26;99.88
41573;BME280;27286;47.870;19.006;2022-12-07T00:43:38;99146.78;;;2.30;99.72
41573;BME280;27286;47.870;19.006;2022-12-07T00:46:03;99145.78;;;2.40;99.29
41573;BME280;27286;47.870;19.006;2022-12-07T00:48:29;99138.88;;;2.44;99.45
41573;BME280;27286;47.870;19.006;2022-12-07T00:50:55;99134.44;;;2.57;98.97
41573;BME280;27286;47.870;19.006;2022-12-07T00:53:21;99143.59;;;2.76;96.76
41573;BME280;27286;47.870;19.006;2022-12-07T00:55:46;99136.59;;;2.84;95.53
41573;BME280;27286;47.870;19.006;2022-12-07T00:58:12;99146.22;;;2.71;95.76
41573;BME280;27286;47.870;19.006;2022-12-07T01:00:39;99148.91;;;2.62;96.97
41573;BME280;27286;47.870;19.006;2022-12-07T01:03:06;99134.50;;;2.54;97.22
41573;BME280;27286;47.870;19.006;2022-12-07T01:05:32;99138.59;;;2.65;97.20
41573;BME280;27286;47.870;19.006;2022-12-07T01:07:58;99129.22;;;2.61;96.84
41573;BME280;27286;47.870;19.006;2022-12-07T01:10:23;99125.09;;;2.53;97.22
41573;BME280;27286;47.870;19.006;2022-12-07T01:12:49;99133.63;;;2.52;98.45
41573;BME280;27286;47.870;19.006;2022-12-07T01:15:15;99142.16;;;2.57;98.31
41573;BME280;27286;47.870;19.006;2022-12-07T01:17:40;99129.03;;;2.75;98.11
41573;BME280;27286;47.870;19.006;2022-12-07T01:20:06;99136.47;;;2.93;96.67
41573;BME280;27286;47.870;19.006;2022-12-07T01:22:40;99134.78;;;2.92;95.96
41573;BME280;27286;47.870;19.006;2022-12-07T01:25:07;99136.53;;;2.90;95.75
41573;BME280;27286;47.870;19.006;2022-12-07T01:27:34;99132.34;;;2.82;96.71
41573;BME280;27286;47.870;19.006;2022-12-07T01:29:59;99124.44;;;2.95;96.33
41573;BME280;27286;47.870;19.006;2022-12-07T01:32:26;99123.56;;;2.96;96.49
41573;BME280;27286;47.870;19.006;2022-12-07T01:34:51;99126.78;;;3.11;96.72
41573;BME280;27286;47.870;19.006;2022-12-07T01:37:16;99116.78;;;3.43;94.02
41573;BME280;27286;47.870;19.006;2022-12-07T01:39:42;99121.41;;;3.24;94.18
41573;BME280;27286;47.870;19.006;2022-12-07T01:42:11;99118.06;;;3.21;94.39
41573;BME280;27286;47.870;19.006;2022-12-07T01:47:41;99095.81;;;3.17;94.84
41573;BME280;27286;47.870;19.006;2022-12-07T01:50:07;99107.09;;;3.08;95.28
41573;BME280;27286;47.870;19.006;2022-12-07T01:52:34;99107.97;;;3.58;94.00
41573;BME280;27286;47.870;19.006;2022-12-07T01:55:04;99105.88;;;3.30;93.31
41573;BME280;27286;47.870;19.006;2022-12-07T01:57:33;99103.69;;;3.08;94.57
41573;BME280;27286;47.870;19.006;2022-12-07T02:00:00;99110.34;;;3.21;94.40
41573;BME280;27286;47.870;19.006;2022-12-07T02:02:28;99102.50;;;3.27;94.29
41573;BME280;27286;47.870;19.006;2022-12-07T02:04:57;99104.53;;;3.08;95.39
41573;BME280;27286;47.870;19.006;2022-12-07T02:07:24;99105.22;;;3.18;94.98
41573;BME280;27286;47.870;19.006;2022-12-07T02:09:50;99106.69;;;3.32;93.58
41573;BME280;27286;47.870;19.006;2022-12-07T02:12:15;99106.91;;;3.19;94.53
41573;BME280;27286;47.870;19.006;2022-12-07T02:14:41;99097.44;;;3.22;93.73
41573;BME280;27286;47.870;19.006;2022-12-07T02:17:28;99110.22;;;3.75;92.59
41573;BME280;27286;47.870;19.006;2022-12-07T02:20:12;99100.66;;;3.33;92.82
41573;BME280;27286;47.870;19.006;2022-12-07T02:31:46;99097.03;;;2.94;95.71
41573;BME280;27286;47.870;19.006;2022-12-07T02:34:22;99097.88;;;2.95;97.14
41573;BME280;27286;47.870;19.006;2022-12-07T02:36:55;99110.75;;;2.95;97.51
41573;BME280;27286;47.870;19.006;2022-12-07T02:39:32;99098.81;;;2.91;97.39
41573;BME280;27286;47.870;19.006;2022-12-07T02:42:03;99100.47;;;2.93;97.27
41573;BME280;27286;47.870;19.006;2022-12-07T02:44:33;99103.06;;;2.92;98.04
41573;BME280;27286;47.870;19.006;2022-12-07T02:47:05;99104.97;;;2.79;98.28
41573;BME280;27286;47.870;19.006;2022-12-07T02:49:32;99094.59;;;2.85;99.39
41573;BME280;27286;47.870;19.006;2022-12-07T02:51:58;99092.63;;;3.03;98.40
41573;BME280;27286;47.870;19.006;2022-12-07T02:54:23;99093.44;;;3.06;96.92
41573;BME280;27286;47.870;19.006;2022-12-07T02:56:50;99090.06;;;3.03;97.74
41573;BME280;27286;47.870;19.006;2022-12-07T03:08:09;99094.34;;;3.00;97.13
41573;BME280;27286;47.870;19.006;2022-12-07T03:13:30;99093.91;;;2.76;99.21
41573;BME280;27286;47.870;19.006;2022-12-07T03:18:30;99094.06;;;2.63;100.00
41573;BME280;27286;47.870;19.006;2022-12-07T03:20:59;99089.94;;;2.55;100.00
41573;BME280;27286;47.870;19.006;2022-12-07T03:23:27;99084.75;;;2.58;100.00
41573;BME280;27286;47.870;19.006;2022-12-07T03:26:00;99090.72;;;2.58;100.00
41573;BME280;27286;47.870;19.006;2022-12-07T03:28:33;99084.31;;;2.85;100.00
41573;BME280;27286;47.870;19.006;2022-12-07T03:31:14;99081.84;;;2.79;100.00
41573;BME280;27286;47.870;19.006;2022-12-07T03:34:12;99081.75;;;2.85;100.00
41573;BME280;27286;47.870;19.006;2022-12-07T03:36:40;99084.38;;;2.81;100.00
41573;BME280;27286;47.870;19.006;2022-12-07T03:41:50;99084.34;;;2.84;100.00
41573;BME280;27286;47.870;19.006;2022-12-07T03:44:16;99088.59;;;2.86;100.00
41573;BME280;27286;47.870;19.006;2022-12-07T03:49:32;99090.53;;;2.72;100.00
41573;BME280;27286;47.870;19.006;2022-12-07T03:52:24;99085.44;;;2.69;100.00
41573;BME280;27286;47.870;19.006;2022-12-07T03:57:24;99083.50;;;2.83;100.00
41573;BME280;27286;47.870;19.006;2022-12-07T03:59:51;99091.44;;;2.69;100.00
41573;BME280;27286;47.870;19.006;2022-12-07T04:02:17;99083.53;;;2.80;100.00
41573;BME280;27286;47.870;19.006;2022-12-07T04:04:43;99085.09;;;2.90;100.00
41573;BME280;27286;47.870;19.006;2022-12-07T04:07:08;99084.38;;;2.82;100.00
41573;BME280;27286;47.870;19.006;2022-12-07T04:09:34;99082.00;;;2.70;100.00
41573;BME280;27286;47.870;19.006;2022-12-07T04:11:59;99090.53;;;2.72;100.00
41573;BME280;27286;47.870;19.006;2022-12-07T04:14:25;99082.25;;;3.07;100.00
41573;BME280;27286;47.870;19.006;2022-12-07T04:16:53;99083.16;;;3.05;100.00
41573;BME280;27286;47.870;19.006;2022-12-07T04:19:20;99074.97;;;2.80;100.00
41573;BME280;27286;47.870;19.006;2022-12-07T04:21:46;99078.31;;;2.86;100.00
41573;BME280;27286;47.870;19.006;2022-12-07T04:24:14;99078.41;;;2.80;100.00
41573;BME280;27286;47.870;19.006;2022-12-07T04:26:41;99073.16;;;2.88;100.00
41573;BME280;27286;47.870;19.006;2022-12-07T04:29:07;99080.31;;;2.69;100.00
41573;BME280;27286;47.870;19.006;2022-12-07T04:31:32;99081.78;;;2.82;100.00
41573;BME280;27286;47.870;19.006;2022-12-07T04:33:58;99082.97;;;2.61;100.00
41573;BME280;27286;47.870;19.006;2022-12-07T04:36:23;99087.94;;;2.74;100.00
41573;BME280;27286;47.870;19.006;2022-12-07T04:38:49;99070.78;;;2.74;100.00
41573;BME280;27286;47.870;19.006;2022-12-07T04:41:14;99082.00;;;2.70;100.00
41573;BME280;27286;47.870;19.006;2022-12-07T04:43:40;99074.19;;;2.76;100.00
41573;BME280;27286;47.870;19.006;2022-12-07T04:46:05;99080.38;;;2.63;100.00
41573;BME280;27286;47.870;19.006;2022-12-07T04:48:31;99078.66;;;2.63;100.00
41573;BME280;27286;47.870;19.006;2022-12-07T04:50:56;99075.00;;;2.78;100.00
41573;BME280;27286;47.870;19.006;2022-12-07T04:53:22;99076.47;;;2.94;100.00
41573;BME280;27286;47.870;19.006;2022-12-07T04:55:48;99077.59;;;2.77;100.00
41573;BME280;27286;47.870;19.006;2022-12-07T04:58:13;99068.38;;;2.63;100.00
41573;BME280;27286;47.870;19.006;2022-12-07T05:00:40;99074.34;;;2.65;100.00
41573;BME280;27286;47.870;19.006;2022-12-07T05:03:06;99075.81;;;2.82;100.00
41573;BME280;27286;47.870;19.006;2022-12-07T05:05:32;99066.28;;;2.88;100.00
41573;BME280;27286;47.870;19.006;2022-12-07T05:07:57;99074.72;;;2.96;100.00
41573;BME280;27286;47.870;19.006;2022-12-07T05:10:23;99074.75;;;2.95;100.00
41573;BME280;27286;47.870;19.006;2022-12-07T05:12:48;99073.88;;;2.94;100.00
41573;BME280;27286;47.870;19.006;2022-12-07T05:15:14;99084.28;;;2.88;100.00
41573;BME280;27286;47.870;19.006;2022-12-07T05:17:40;99074.34;;;3.18;100.00
41573;BME280;27286;47.870;19.006;2022-12-07T05:20:06;99078.00;;;3.06;100.00
41573;BME280;27286;47.870;19.006;2022-12-07T05:22:31;99080.47;;;3.11;100.00
41573;BME280;27286;47.870;19.006;2022-12-07T05:24:57;99085.97;;;2.89;100.00
41573;BME280;27286;47.870;19.006;2022-12-07T05:27:22;99072.75;;;3.11;100.00
41573;BME280;27286;47.870;19.006;2022-12-07T05:29:49;99077.19;;;3.03;100.00
41573;BME280;27286;47.870;19.006;2022-12-07T05:32:15;99080.75;;;2.94;100.00
41573;BME280;27286;47.870;19.006;2022-12-07T05:34:40;99069.88;;;2.78;100.00
41573;BME280;27286;47.870;19.006;2022-12-07T05:37:06;99083.50;;;2.83;100.00
41573;BME280;27286;47.870;19.006;2022-12-07T05:39:31;99076.47;;;2.94;100.00
41573;BME280;27286;47.870;19.006;2022-12-07T05:41:57;99076.66;;;2.82;100.00
41573;BME280;27286;47.870;19.006;2022-12-07T05:44:39;99078.25;;;2.91;100.00
41573;BME280;27286;47.870;19.006;2022-12-07T05:47:05;99086.31;;;3.22;100.00
41573;BME280;27286;47.870;19.006;2022-12-07T05:49:31;99077.31;;;2.95;100.00
41573;BME280;27286;47.870;19.006;2022-12-07T05:51:56;99081.59;;;2.94;100.00
41573;BME280;27286;47.870;19.006;2022-12-07T05:54:22;99080.84;;;2.89;100.00
41573;BME280;27286;47.870;19.006;2022-12-07T05:56:47;99083.25;;;2.98;100.00
41573;BME280;27286;47.870;19.006;2022-12-07T05:59:13;99078.16;;;2.95;100.00
41573;BME280;27286;47.870;19.006;2022-12-07T06:02:00;99082.19;;;3.10;100.00
41573;BME280;27286;47.870;19.006;2022-12-07T06:04:29;99084.94;;;2.99;100.00
41573;BME280;27286;47.870;19.006;2022-12-07T06:06:55;99092.63;;;3.03;100.00
41573;BME280;27286;47.870;19.006;2022-12-07T06:09:23;99086.69;;;2.97;100.00
41573;BME280;27286;47.870;19.006;2022-12-07T06:11:48;99093.25;;;3.15;100.00
41573;BME280;27286;47.870;19.006;2022-12-07T06:14:33;99088.09;;;3.17;99.07
41573;BME280;27286;47.870;19.006;2022-12-07T06:16:58;99086.22;;;3.26;98.72
41573;BME280;27286;47.870;19.006;2022-12-07T06:19:24;99093.88;;;3.29;97.41
41573;BME280;27286;47.870;19.006;2022-12-07T06:21:50;99095.75;;;3.21;97.50
41573;BME280;27286;47.870;19.006;2022-12-07T06:24:17;99091.44;;;3.22;97.98
41573;BME280;27286;47.870;19.006;2022-12-07T06:26:43;99093.75;;;3.36;98.04
41573;BME280;27286;47.870;19.006;2022-12-07T06:29:09;99090.38;;;3.33;97.47
41573;BME280;27286;47.870;19.006;2022-12-07T06:31:36;99088.66;;;3.32;96.94
41573;BME280;27286;47.870;19.006;2022-12-07T06:34:03;99090.25;;;3.41;96.41
41573;BME280;27286;47.870;19.006;2022-12-07T06:36:29;99095.91;;;3.60;95.71
41573;BME280;27286;47.870;19.006;2022-12-07T06:38:55;99095.13;;;3.56;93.93
41573;BME280;27286;47.870;19.006;2022-12-07T06:41:21;99095.31;;;3.46;95.22
41573;BME280;27286;47.870;19.006;2022-12-07T06:43:47;99096.34;;;3.37;95.18
41573;BME280;27286;47.870;19.006;2022-12-07T06:46:13;99095.38;;;3.43;94.77
41573;BME280;27286;47.870;19.006;2022-12-07T06:48:39;99101.44;;;3.39;96.11
41573;BME280;27286;47.870;19.006;2022-12-07T06:51:05;99101.53;;;3.32;96.26
41573;BME280;27286;47.870;19.006;2022-12-07T06:53:30;99102.31;;;3.38;95.27
41573;BME280;27286;47.870;19.006;2022-12-07T06:55:56;99101.56;;;3.31;95.19
41573;BME280;27286;47.870;19.006;2022-12-07T06:58:21;99108.34;;;3.35;95.71
41573;BME280;27286;47.870;19.006;2022-12-07T07:00:48;99110.91;;;3.35;94.79
41573;BME280;27286;47.870;19.006;2022-12-07T07:03:14;99108.81;;;3.58;92.64
41573;BME280;27286;47.870;19.006;2022-12-07T07:05:40;99121.81;;;3.49;93.13
41573;BME280;27286;47.870;19.006;2022-12-07T07:08:06;99116.78;;;3.45;93.33
41573;BME280;27286;47.870;19.006;2022-12-07T07:10:31;99113.00;;;3.62;92.96
41573;BME280;27286;47.870;19.006;2022-12-07T07:12:57;99112.88;;;3.69;91.54
41573;BME280;27286;47.870;19.006;2022-12-07T07:15:22;99113.50;;;3.81;89.88
41573;BME280;27286;47.870;19.006;2022-12-07T07:17:48;99108.19;;;3.90;90.13
41573;BME280;27286;47.870;19.006;2022-12-07T07:20:13;99109.91;;;3.91;89.02
41573;BME280;27286;47.870;19.006;2022-12-07T07:22:39;99116.88;;;3.86;88.96
41573;BME280;27286;47.870;19.006;2022-12-07T07:25:04;99114.38;;;3.82;89.26
41573;BME280;27286;47.870;19.006;2022-12-07T07:27:30;99120.44;;;3.79;89.50
41573;BME280;27286;47.870;19.006;2022-12-07T07:29:55;99112.47;;;3.91;88.95
41573;BME280;27286;47.870;19.006;2022-12-07T07:32:20;99109.47;;;4.13;87.32
41573;BME280;27286;47.870;19.006;2022-12-07T07:34:47;99114.84;;;4.01;87.40
41573;BME280;27286;47.870;19.006;2022-12-07T07:37:13;99116.47;;;4.06;86.98
41573;BME280;27286;47.870;19.006;2022-12-07T07:39:39;99117.91;;;4.19;87.63
41573;BME280;27286;47.870;19.006;2022-12-07T07:42:05;99122.25;;;4.17;87.19
41573;BME280;27286;47.870;19.006;2022-12-07T07:44:33;99119.66;;;4.17;87.58
41573;BME280;27286;47.870;19.006;2022-12-07T07:46:58;99115.44;;;4.15;86.95
41573;BME280;27286;47.870;19.006;2022-12-07T07:49:24;99123.16;;;4.15;86.90
41573;BME280;27286;47.870;19.006;2022-12-07T07:51:49;99122.38;;;4.11;87.62
41573;BME280;27286;47.870;19.006;2022-12-07T07:54:14;99124.75;;;4.22;86.59
41573;BME280;27286;47.870;19.006;2022-12-07T07:56:40;99125.34;;;4.33;85.92
41573;BME280;27286;47.870;19.006;2022-12-07T07:59:05;99129.56;;;4.39;85.91
41573;BME280;27286;47.870;19.006;2022-12-07T08:01:31;99132.00;;;4.45;85.50
41573;BME280;27286;47.870;19.006;2022-12-07T08:03:56;99131.13;;;4.44;86.08
41573;BME280;27286;47.870;19.006;2022-12-07T08:06:22;99125.81;;;4.52;85.16
41573;BME280;27286;47.870;19.006;2022-12-07T08:08:47;99134.91;;;5.07;82.55
41573;BME280;27286;47.870;19.006;2022-12-07T08:11:13;99131.00;;;4.89;82.70
41573;BME280;27286;47.870;19.006;2022-12-07T08:13:38;99127.66;;;4.84;83.44
41573;BME280;27286;47.870;19.006;2022-12-07T08:16:09;99131.50;;;4.66;82.04
41573;BME280;27286;47.870;19.006;2022-12-07T08:18:35;99131.69;;;4.59;83.00
41573;BME280;27286;47.870;19.006;2022-12-07T08:21:02;99119.91;;;4.47;82.67
41573;BME280;27286;47.870;19.006;2022-12-07T08:23:28;99138.41;;;4.66;83.92
41573;BME280;27286;47.870;19.006;2022-12-07T08:25:53;99142.06;;;4.56;83.89
41573;BME280;27286;47.870;19.006;2022-12-07T08:28:18;99140.06;;;4.68;83.72
41573;BME280;27286;47.870;19.006;2022-12-07T08:30:44;99137.38;;;4.74;84.14
41573;BME280;27286;47.870;19.006;2022-12-07T08:33:10;99130.13;;;4.90;83.35
41573;BME280;27286;47.870;19.006;2022-12-07T08:35:35;99139.19;;;5.06;82.52
41573;BME280;27286;47.870;19.006;2022-12-07T08:38:01;99132.72;;;5.26;80.40
41573;BME280;27286;47.870;19.006;2022-12-07T08:40:28;99150.16;;;5.50;79.55
41573;BME280;27286;47.870;19.006;2022-12-07T08:42:53;99143.75;;;5.65;78.22
41573;BME280;27286;47.870;19.006;2022-12-07T08:45:20;99154.91;;;5.99;76.60
41573;BME280;27286;47.870;19.006;2022-12-07T08:47:53;99153.19;;;6.00;75.55
41573;BME280;27286;47.870;19.006;2022-12-07T08:50:20;99140.22;;;6.01;75.80
41573;BME280;27286;47.870;19.006;2022-12-07T08:52:52;99152.94;;;6.09;75.80
41573;BME280;27286;47.870;19.006;2022-12-07T08:55:19;99147.47;;;6.20;76.15
41573;BME280;27286;47.870;19.006;2022-12-07T08:57:45;99148.81;;;6.33;75.19
41573;BME280;27286;47.870;19.006;2022-12-07T09:00:11;99147.84;;;6.37;74.80
41573;BME280;27286;47.870;19.006;2022-12-07T09:02:37;99146.53;;;6.52;74.01
41573;BME280;27286;47.870;19.006;2022-12-07T09:05:03;99141.97;;;6.61;72.89
41573;BME280;27286;47.870;19.006;2022-12-07T09:07:30;99140.13;;;6.65;71.14
41573;BME280;27286;47.870;19.006;2022-12-07T09:09:57;99140.78;;;7.00;70.07
41573;BME280;27286;47.870;19.006;2022-12-07T09:12:22;99139.34;;;7.44;67.63
41573;BME280;27286;47.870;19.006;2022-12-07T09:14:47;99140.03;;;7.49;68.50
41573;BME280;27286;47.870;19.006;2022-12-07T09:17:13;99128.22;;;8.15;66.45
41573;BME280;27286;47.870;19.006;2022-12-07T09:19:39;99124.50;;;8.47;65.39
41573;BME280;27286;47.870;19.006;2022-12-07T09:22:05;99119.97;;;8.04;65.66
41573;BME280;27286;47.870;19.006;2022-12-07T09:24:31;99131.66;;;7.67;67.01
41573;BME280;27286;47.870;19.006;2022-12-07T09:26:57;99127.19;;;7.46;67.12
41573;BME280;27286;47.870;19.006;2022-12-07T09:29:23;99135.75;;;7.48;67.72
41573;BME280;27286;47.870;19.006;2022-12-07T09:31:48;99126.88;;;7.55;66.36
41573;BME280;27286;47.870;19.006;2022-12-07T09:34:14;99123.59;;;7.50;67.03
41573;BME280;27286;47.870;19.006;2022-12-07T09:36:39;99129.72;;;7.72;66.94
41573;BME280;27286;47.870;19.006;2022-12-07T09:39:04;99126.38;;;7.95;65.00
41573;BME280;27286;47.870;19.006;2022-12-07T09:41:31;99103.16;;;8.15;63.77
41573;BME280;27286;47.870;19.006;2022-12-07T09:44:03;99115.22;;;9.70;59.12
41573;BME280;27286;47.870;19.006;2022-12-07T09:46:34;99099.63;;;12.07;52.50
41573;BME280;27286;47.870;19.006;2022-12-07T09:49:01;99097.88;;;11.21;51.45
41573;BME280;27286;47.870;19.006;2022-12-07T09:51:27;99099.66;;;11.20;52.97
41573;BME280;27286;47.870;19.006;2022-12-07T09:53:54;99095.22;;;12.72;49.54
41573;BME280;27286;47.870;19.006;2022-12-07T09:56:22;99090.66;;;12.91;49.19
41573;BME280;27286;47.870;19.006;2022-12-07T09:58:48;99092.22;;;13.25;48.91
41573;BME280;27286;47.870;19.006;2022-12-07T10:01:20;99090.22;;;11.87;51.92
41573;BME280;27286;47.870;19.006;2022-12-07T10:03:53;99090.75;;;10.52;55.35
41573;BME280;27286;47.870;19.006;2022-12-07T10:06:19;99092.75;;;9.48;58.40
41573;BME280;27286;47.870;19.006;2022-12-07T10:08:44;99102.13;;;8.88;59.89
41573;BME280;27286;47.870;19.006;2022-12-07T10:11:10;99091.16;;;8.36;61.90
41573;BME280;27286;47.870;19.006;2022-12-07T10:16:02;99102.47;;;7.62;64.68
41573;BME280;27286;47.870;19.006;2022-12-07T10:23:35;99087.53;;;7.19;66.10
41573;BME280;27286;47.870;19.006;2022-12-07T10:26:20;99075.97;;;7.03;66.47
41573;BME280;27286;47.870;19.006;2022-12-07T10:28:47;99078.34;;;7.10;67.09
41573;BME280;27286;47.870;19.006;2022-12-07T10:31:18;99081.03;;;7.07;66.64
41573;BME280;27286;47.870;19.006;2022-12-07T10:36:20;99080.78;;;6.87;68.85
41573;BME280;27286;47.870;19.006;2022-12-07T10:41:26;99101.78;;;6.22;70.26
41573;BME280;27286;47.870;19.006;2022-12-07T10:43:54;99087.50;;;5.76;72.06
41573;BME280;27286;47.870;19.006;2022-12-07T10:49:23;99077.59;;;5.93;71.79
41573;BME280;27286;47.870;19.006;2022-12-07T10:57:26;99050.75;;;12.57;55.08
41573;BME280;27286;47.870;19.006;2022-12-07T11:00:09;99029.16;;;12.07;52.93
41573;BME280;27286;47.870;19.006;2022-12-07T11:11:40;99017.69;;;10.00;58.40
41573;BME280;27286;47.870;19.006;2022-12-07T11:23:16;99049.50;;;8.41;61.07
41573;BME280;27286;47.870;19.006;2022-12-07T11:29:20;99035.03;;;9.81;57.36
41573;BME280;27286;47.870;19.006;2022-12-07T11:31:36;99035.84;;;9.62;56.78
41573;BME280;27286;47.870;19.006;2022-12-07T11:36:54;99042.31;;;9.73;57.27
41573;BME280;27286;47.870;19.006;2022-12-07T11:39:33;99030.53;;;11.30;52.66
41573;BME280;27286;47.870;19.006;2022-12-07T11:42:15;99023.25;;;14.27;45.26
41573;BME280;27286;47.870;19.006;2022-12-07T11:45:20;99027.66;;;14.82;42.15
41573;BME280;27286;47.870;19.006;2022-12-07T11:47:48;99016.88;;;15.77;40.40
41573;BME280;27286;47.870;19.006;2022-12-07T11:50:33;99019.31;;;14.75;42.38
41573;BME280;27286;47.870;19.006;2022-12-07T11:56:13;99027.78;;;12.32;47.68
41573;BME280;27286;47.870;19.006;2022-12-07T12:06:24;99010.63;;;15.02;41.64
41573;BME280;27286;47.870;19.006;2022-12-07T12:08:58;99002.41;;;16.34;39.39
41573;BME280;27286;47.870;19.006;2022-12-07T12:20:03;98999.25;;;15.92;38.11
41573;BME280;27286;47.870;19.006;2022-12-07T12:22:48;98995.38;;;14.40;42.04
41573;BME280;27286;47.870;19.006;2022-12-07T12:25:30;98990.59;;;14.61;41.90
41573;BME280;27286;47.870;19.006;2022-12-07T12:27:58;98999.56;;;13.88;43.66
41573;BME280;27286;47.870;19.006;2022-12-07T12:32:50;99002.88;;;10.93;51.36
41573;BME280;27286;47.870;19.006;2022-12-07T12:35:34;99023.13;;;10.33;52.88
41573;BME280;27286;47.870;19.006;2022-12-07T12:38:47;99025.06;;;10.09;52.63
41573;BME280;27286;47.870;19.006;2022-12-07T12:41:54;99028.31;;;9.16;56.35
41573;BME280;27286;47.870;19.006;2022-12-07T12:54:26;99007.84;;;13.23;44.56
41573;BME280;27286;47.870;19.006;2022-12-07T13:15:41;99018.06;;;9.33;53.26
41573;BME280;27286;47.870;19.006;2022-12-07T13:29:13;99038.81;;;7.55;60.19
41573;BME280;27286;47.870;19.006;2022-12-07T13:31:46;99051.22;;;7.20;61.95
41573;BME280;27286;47.870;19.006;2022-12-07T13:36:56;99037.25;;;7.26;60.80
41573;BME280;27286;47.870;19.006;2022-12-07T13:39:23;99045.38;;;6.62;63.06
41573;BME280;27286;47.870;19.006;2022-12-07T13:41:51;99039.69;;;6.23;63.99
41573;BME280;27286;47.870;19.006;2022-12-07T13:44:18;99045.06;;;5.85;66.09
41573;BME280;27286;47.870;19.006;2022-12-07T13:49:21;99053.78;;;5.50;68.69
41573;BME280;27286;47.870;19.006;2022-12-07T13:51:48;99052.31;;;5.41;70.20
41573;BME280;27286;47.870;19.006;2022-12-07T13:54:15;99059.25;;;5.37;71.22
41573;BME280;27286;47.870;19.006;2022-12-07T13:56:41;99048.91;;;5.71;68.45
41573;BME280;27286;47.870;19.006;2022-12-07T13:59:22;99043.59;;;5.76;67.98
41573;BME280;27286;47.870;19.006;2022-12-07T14:01:49;99048.78;;;5.76;67.91
41573;BME280;27286;47.870;19.006;2022-12-07T14:04:33;99051.84;;;5.58;69.84
41573;BME280;27286;47.870;19.006;2022-12-07T14:06:59;99040.63;;;5.91;68.00
41573;BME280;27286;47.870;19.006;2022-12-07T14:09:27;99052.94;;;5.80;68.12
41573;BME280;27286;47.870;19.006;2022-12-07T14:11:55;99059.56;;;5.59;68.99
41573;BME280;27286;47.870;19.006;2022-12-07T14:14:28;99056.44;;;5.47;69.61
41573;BME280;27286;47.870;19.006;2022-12-07T14:17:01;99061.78;;;5.40;69.18
41573;BME280;27286;47.870;19.006;2022-12-07T14:19:47;99058.38;;;5.06;71.64
41573;BME280;27286;47.870;19.006;2022-12-07T14:25:23;99053.50;;;4.94;71.87
41573;BME280;27286;47.870;19.006;2022-12-07T14:28:00;99047.69;;;4.48;73.27
41573;BME280;27286;47.870;19.006;2022-12-07T14:30:28;99058.53;;;4.26;74.21
41573;BME280;27286;47.870;19.006;2022-12-07T14:32:57;99061.06;;;4.27;75.41
41573;BME280;27286;47.870;19.006;2022-12-07T14:35:24;99061.22;;;4.19;75.26
41573;BME280;27286;47.870;19.006;2022-12-07T14:37:49;99057.44;;;4.36;74.20
41573;BME280;27286;47.870;19.006;2022-12-07T14:40:27;99059.41;;;4.25;74.08
41573;BME280;27286;47.870;19.006;2022-12-07T14:43:05;99056.22;;;4.13;74.93
41573;BME280;27286;47.870;19.006;2022-12-07T14:45:32;99060.50;;;4.13;76.15
41573;BME280;27286;47.870;19.006;2022-12-07T14:47:58;99064.38;;;3.92;76.72
41573;BME280;27286;47.870;19.006;2022-12-07T14:50:23;99063.06;;;3.73;77.79
41573;BME280;27286;47.870;19.006;2022-12-07T14:52:57;99065.78;;;3.65;78.43
41573;BME280;27286;47.870;19.006;2022-12-07T14:55:29;99065.88;;;3.60;78.53
41573;BME280;27286;47.870;19.006;2022-12-07T14:57:55;99073.66;;;3.57;78.30
41573;BME280;27286;47.870;19.006;2022-12-07T15:00:23;99079.97;;;3.40;78.75
41573;BME280;27286;47.870;19.006;2022-12-07T15:02:51;99069.75;;;3.35;79.96
41573;BME280;27286;47.870;19.006;2022-12-07T15:05:17;99067.25;;;3.32;79.70
41573;BME280;27286;47.870;19.006;2022-12-07T15:07:44;99073.63;;;3.11;80.51
41573;BME280;27286;47.870;19.006;2022-12-07T15:12:41;99073.41;;;2.71;82.93
41573;BME280;27286;47.870;19.006;2022-12-07T15:15:07;99074.31;;;2.67;83.21
41573;BME280;27286;47.870;19.006;2022-12-07T15:17:32;99077.72;;;2.70;84.04
41573;BME280;27286;47.870;19.006;2022-12-07T15:19:58;99072.56;;;2.70;83.63
41573;BME280;27286;47.870;19.006;2022-12-07T15:22:23;99070.22;;;2.55;84.13
41573;BME280;27286;47.870;19.006;2022-12-07T15:24:48;99079.44;;;2.67;84.71
41573;BME280;27286;47.870;19.006;2022-12-07T15:27:14;99084.78;;;2.56;84.89
41573;BME280;27286;47.870;19.006;2022-12-07T15:29:39;99085.75;;;2.46;84.49
41573;BME280;27286;47.870;19.006;2022-12-07T15:32:05;99094.63;;;2.25;84.82
41573;BME280;27286;47.870;19.006;2022-12-07T15:34:30;99094.06;;;2.03;85.43
41573;BME280;27286;47.870;19.006;2022-12-07T15:36:57;99101.13;;;1.83;85.99
41573;BME280;27286;47.870;19.006;2022-12-07T15:39:22;99103.81;;;1.72;86.81